sensor_id;sensor_type;location;lat;lon;timestamp;P1;P2;P0
14880;PMS7003;7533;51.278;12.588;2022-07-26T00:03:02;16.80;16.00;8.40
14880;PMS7003;7533;51.278;12.588;2022-07-26T00:08:05;17.40;13.00;9.20
14880;PMS7003;7533;51.278;12.588;2022-07-26T00:13:16;13.80;13.00;9.20
14880;PMS7003;7533;51.278;12.588;2022-07-26T00:18:20;11.60;11.00;9.00
14880;PMS7003;7533;51.278;12.588;2022-07-26T00:23:23;14.00;12.40;9.00
14880;PMS7003;7533;51.278;12.588;2022-07-26T00:28:27;14.60;13.60;10.20
14880;PMS7003;7533;51.278;12.588;2022-07-26T00:33:30;13.60;12.60;9.00
14880;PMS7003;7533;51.278;12.588;2022-07-26T00:38:33;13.60;11.40;9.00
14880;PMS7003;7533;51.278;12.588;2022-07-26T00:43:37;12.00;12.00;7.20
14880;PMS7003;7533;51.278;12.588;2022-07-26T00:48:55;12.80;12.80;8.00
14880;PMS7003;7533;51.278;12.588;2022-07-26T00:53:57;13.80;12.60;8.00
14880;PMS7003;7533;51.278;12.588;2022-07-26T00:59:02;13.20;12.20;9.00
14880;PMS7003;7533;51.278;12.588;2022-07-26T01:04:05;11.75;11.50;8.00
14880;PMS7003;7533;51.278;12.588;2022-07-26T01:09:08;11.80;11.60;8.20
14880;PMS7003;7533;51.278;12.588;2022-07-26T01:14:13;12.60;12.40;8.00
14880;PMS7003;7533;51.278;12.588;2022-07-26T01:19:16;12.00;12.00;9.00
14880;PMS7003;7533;51.278;12.588;2022-07-26T01:24:22;12.20;12.00;8.40
14880;PMS7003;7533;51.278;12.588;2022-07-26T01:29:24;12.40;12.40;9.00
14880;PMS7003;7533;51.278;12.588;2022-07-26T01:34:35;14.25;11.25;8.00
14880;PMS7003;7533;51.278;12.588;2022-07-26T01:39:39;14.80;13.20;8.40
14880;PMS7003;7533;51.278;12.588;2022-07-26T01:44:44;13.25;11.75;7.00
14880;PMS7003;7533;51.278;12.588;2022-07-26T01:49:46;10.00;10.00;7.40
14880;PMS7003;7533;51.278;12.588;2022-07-26T01:54:50;12.60;12.60;7.80
14880;PMS7003;7533;51.278;12.588;2022-07-26T01:59:53;15.20;12.00;8.00
14880;PMS7003;7533;51.278;12.588;2022-07-26T02:04:56;12.60;12.00;9.20
14880;PMS7003;7533;51.278;12.588;2022-07-26T02:10:04;15.40;12.00;8.00
14880;PMS7003;7533;51.278;12.588;2022-07-26T02:15:08;11.60;11.20;7.40
14880;PMS7003;7533;51.278;12.588;2022-07-26T02:20:12;11.40;10.60;6.40
14880;PMS7003;7533;51.278;12.588;2022-07-26T02:25:18;14.00;11.60;8.80
14880;PMS7003;7533;51.278;12.588;2022-07-26T02:30:21;11.00;11.00;8.00
14880;PMS7003;7533;51.278;12.588;2022-07-26T02:35:24;11.80;11.80;8.60
14880;PMS7003;7533;51.278;12.588;2022-07-26T02:40:29;13.50;12.75;8.25
14880;PMS7003;7533;51.278;12.588;2022-07-26T02:45:32;13.80;13.60;8.80
14880;PMS7003;7533;51.278;12.588;2022-07-26T02:50:35;11.60;11.60;8.40
14880;PMS7003;7533;51.278;12.588;2022-07-26T02:55:39;12.00;12.00;7.20
14880;PMS7003;7533;51.278;12.588;2022-07-26T03:00:42;14.60;12.80;9.00
14880;PMS7003;7533;51.278;12.588;2022-07-26T03:05:45;12.75;11.75;7.50
14880;PMS7003;7533;51.278;12.588;2022-07-26T03:10:49;13.60;13.40;8.80
14880;PMS7003;7533;51.278;12.588;2022-07-26T03:15:52;12.20;11.40;7.60
14880;PMS7003;7533;51.278;12.588;2022-07-26T03:20:55;14.80;13.40;8.60
14880;PMS7003;7533;51.278;12.588;2022-07-26T03:25:59;10.60;10.60;8.20
14880;PMS7003;7533;51.278;12.588;2022-07-26T03:31:03;16.00;13.20;9.20
14880;PMS7003;7533;51.278;12.588;2022-07-26T03:36:06;14.00;13.50;8.00
14880;PMS7003;7533;51.278;12.588;2022-07-26T03:41:17;14.00;13.00;8.20
14880;PMS7003;7533;51.278;12.588;2022-07-26T03:46:19;10.00;10.00;7.25
14880;PMS7003;7533;51.278;12.588;2022-07-26T03:51:22;14.50;11.00;7.75
14880;PMS7003;7533;51.278;12.588;2022-07-26T03:56:26;10.75;10.75;7.25
14880;PMS7003;7533;51.278;12.588;2022-07-26T04:01:36;10.80;10.60;7.00
14880;PMS7003;7533;51.278;12.588;2022-07-26T04:06:42;10.75;10.75;6.50
14880;PMS7003;7533;51.278;12.588;2022-07-26T04:11:47;9.75;9.75;7.00
14880;PMS7003;7533;51.278;12.588;2022-07-26T04:16:50;8.75;8.50;6.50
14880;PMS7003;7533;51.278;12.588;2022-07-26T04:21:53;10.50;8.00;5.75
14880;PMS7003;7533;51.278;12.588;2022-07-26T04:26:57;9.00;9.00;5.25
14880;PMS7003;7533;51.278;12.588;2022-07-26T04:32:00;8.00;8.00;6.00
14880;PMS7003;7533;51.278;12.588;2022-07-26T04:37:03;10.25;9.50;6.50
14880;PMS7003;7533;51.278;12.588;2022-07-26T04:42:07;9.75;8.75;5.00
14880;PMS7003;7533;51.278;12.588;2022-07-26T04:47:10;6.50;6.50;4.50
14880;PMS7003;7533;51.278;12.588;2022-07-26T04:52:14;7.50;7.50;4.75
14880;PMS7003;7533;51.278;12.588;2022-07-26T04:57:18;7.00;6.75;4.25
14880;PMS7003;7533;51.278;12.588;2022-07-26T05:02:22;8.00;8.00;5.00
14880;PMS7003;7533;51.278;12.588;2022-07-26T05:07:25;9.00;9.00;5.75
14880;PMS7003;7533;51.278;12.588;2022-07-26T05:12:29;6.25;6.00;4.50
14880;PMS7003;7533;51.278;12.588;2022-07-26T05:17:32;9.00;7.00;4.00
14880;PMS7003;7533;51.278;12.588;2022-07-26T05:22:36;7.50;6.75;4.50
14880;PMS7003;7533;51.278;12.588;2022-07-26T05:27:41;8.00;8.00;4.75
14880;PMS7003;7533;51.278;12.588;2022-07-26T05:32:43;8.75;7.00;5.25
14880;PMS7003;7533;51.278;12.588;2022-07-26T05:37:46;7.25;7.00;3.50
14880;PMS7003;7533;51.278;12.588;2022-07-26T05:42:51;6.25;5.75;3.75
14880;PMS7003;7533;51.278;12.588;2022-07-26T05:47:53;6.50;5.00;4.00
14880;PMS7003;7533;51.278;12.588;2022-07-26T05:52:56;6.50;6.00;4.00
14880;PMS7003;7533;51.278;12.588;2022-07-26T05:58:00;5.75;5.75;4.00
14880;PMS7003;7533;51.278;12.588;2022-07-26T06:03:03;7.75;7.00;4.25
14880;PMS7003;7533;51.278;12.588;2022-07-26T06:08:22;7.75;6.50;4.25
14880;PMS7003;7533;51.278;12.588;2022-07-26T06:13:27;5.50;5.00;3.00
14880;PMS7003;7533;51.278;12.588;2022-07-26T06:18:30;6.75;6.50;4.50
14880;PMS7003;7533;51.278;12.588;2022-07-26T06:23:33;8.75;6.00;4.00
14880;PMS7003;7533;51.278;12.588;2022-07-26T06:28:37;4.75;4.75;2.75
14880;PMS7003;7533;51.278;12.588;2022-07-26T06:33:40;4.75;4.00;3.00
14880;PMS7003;7533;51.278;12.588;2022-07-26T06:38:42;6.50;5.50;3.75
14880;PMS7003;7533;51.278;12.588;2022-07-26T06:43:50;7.50;5.25;3.00
14880;PMS7003;7533;51.278;12.588;2022-07-26T06:48:53;6.00;3.75;2.00
14880;PMS7003;7533;51.278;12.588;2022-07-26T06:53:57;7.00;6.25;4.00
14880;PMS7003;7533;51.278;12.588;2022-07-26T06:59:02;5.75;5.00;2.00
14880;PMS7003;7533;51.278;12.588;2022-07-26T07:04:09;7.00;7.00;3.50
14880;PMS7003;7533;51.278;12.588;2022-07-26T07:09:12;4.50;4.50;3.00
14880;PMS7003;7533;51.278;12.588;2022-07-26T07:14:17;4.75;4.25;3.00
14880;PMS7003;7533;51.278;12.588;2022-07-26T07:19:20;4.75;4.75;2.50
14880;PMS7003;7533;51.278;12.588;2022-07-26T07:24:23;8.25;7.75;5.00
14880;PMS7003;7533;51.278;12.588;2022-07-26T07:29:27;3.75;3.75;2.00
14880;PMS7003;7533;51.278;12.588;2022-07-26T07:34:30;3.75;3.00;2.00
14880;PMS7003;7533;51.278;12.588;2022-07-26T07:39:33;5.00;3.00;2.00
14880;PMS7003;7533;51.278;12.588;2022-07-26T07:44:40;4.00;2.25;1.25
14880;PMS7003;7533;51.278;12.588;2022-07-26T07:49:43;6.75;4.00;3.00
14880;PMS7003;7533;51.278;12.588;2022-07-26T07:54:45;5.00;5.00;2.00
14880;PMS7003;7533;51.278;12.588;2022-07-26T07:59:50;3.50;3.50;2.00
14880;PMS7003;7533;51.278;12.588;2022-07-26T08:04:52;6.00;6.00;4.25
14880;PMS7003;7533;51.278;12.588;2022-07-26T08:09:59;6.00;6.00;3.75
14880;PMS7003;7533;51.278;12.588;2022-07-26T08:15:04;4.25;4.25;2.50
14880;PMS7003;7533;51.278;12.588;2022-07-26T08:20:09;4.00;4.00;2.00
14880;PMS7003;7533;51.278;12.588;2022-07-26T08:25:16;4.25;4.25;2.50
14880;PMS7003;7533;51.278;12.588;2022-07-26T08:30:21;5.25;3.00;2.00
14880;PMS7003;7533;51.278;12.588;2022-07-26T08:35:24;3.25;3.00;2.00
14880;PMS7003;7533;51.278;12.588;2022-07-26T08:40:27;4.00;4.00;2.50
14880;PMS7003;7533;51.278;12.588;2022-07-26T08:45:31;5.00;4.25;3.50
14880;PMS7003;7533;51.278;12.588;2022-07-26T08:50:34;5.50;5.25;2.00
14880;PMS7003;7533;51.278;12.588;2022-07-26T08:55:37;4.50;4.00;2.00
14880;PMS7003;7533;51.278;12.588;2022-07-26T09:01:04;3.00;3.00;2.00
14880;PMS7003;7533;51.278;12.588;2022-07-26T09:06:13;4.00;4.00;3.00
14880;PMS7003;7533;51.278;12.588;2022-07-26T09:11:26;4.25;3.25;2.25
14880;PMS7003;7533;51.278;12.588;2022-07-26T09:16:32;4.50;4.50;3.25
14880;PMS7003;7533;51.278;12.588;2022-07-26T09:21:40;4.00;3.50;2.50
14880;PMS7003;7533;51.278;12.588;2022-07-26T09:26:53;4.00;4.00;2.00
14880;PMS7003;7533;51.278;12.588;2022-07-26T09:32:11;3.25;3.25;2.00
14880;PMS7003;7533;51.278;12.588;2022-07-26T09:37:17;3.00;3.00;2.00
14880;PMS7003;7533;51.278;12.588;2022-07-26T09:42:21;4.00;3.00;2.00
14880;PMS7003;7533;51.278;12.588;2022-07-26T09:47:37;2.25;2.25;1.75
14880;PMS7003;7533;51.278;12.588;2022-07-26T09:52:55;3.75;3.75;2.25
14880;PMS7003;7533;51.278;12.588;2022-07-26T09:58:03;4.00;4.00;2.00
14880;PMS7003;7533;51.278;12.588;2022-07-26T10:03:08;3.00;3.00;2.00
14880;PMS7003;7533;51.278;12.588;2022-07-26T10:08:11;3.00;3.00;2.25
14880;PMS7003;7533;51.278;12.588;2022-07-26T10:13:14;3.50;3.00;2.00
14880;PMS7003;7533;51.278;12.588;2022-07-26T10:23:56;4.00;4.00;2.00
14880;PMS7003;7533;51.278;12.588;2022-07-26T10:29:22;2.75;2.75;1.75
14880;PMS7003;7533;51.278;12.588;2022-07-26T10:34:32;6.75;5.25;2.25
14880;PMS7003;7533;51.278;12.588;2022-07-26T10:39:37;2.75;2.75;2.00
14880;PMS7003;7533;51.278;12.588;2022-07-26T10:44:40;3.25;3.25;2.00
14880;PMS7003;7533;51.278;12.588;2022-07-26T10:49:53;3.00;3.00;2.25
14880;PMS7003;7533;51.278;12.588;2022-07-26T10:55:06;3.25;3.25;2.00
14880;PMS7003;7533;51.278;12.588;2022-07-26T11:00:11;4.00;4.00;2.00
14880;PMS7003;7533;51.278;12.588;2022-07-26T11:05:18;3.00;3.00;1.75
14880;PMS7003;7533;51.278;12.588;2022-07-26T11:10:22;3.25;3.25;2.00
14880;PMS7003;7533;51.278;12.588;2022-07-26T11:15:30;3.00;3.00;2.25
14880;PMS7003;7533;51.278;12.588;2022-07-26T11:20:35;4.00;4.00;2.00
14880;PMS7003;7533;51.278;12.588;2022-07-26T11:25:38;3.00;3.00;2.00
14880;PMS7003;7533;51.278;12.588;2022-07-26T11:30:48;3.00;3.00;2.00
14880;PMS7003;7533;51.278;12.588;2022-07-26T11:35:58;4.00;3.00;2.00
14880;PMS7003;7533;51.278;12.588;2022-07-26T11:41:01;3.50;3.50;3.00
14880;PMS7003;7533;51.278;12.588;2022-07-26T11:46:04;6.75;5.00;3.00
14880;PMS7003;7533;51.278;12.588;2022-07-26T11:51:09;5.00;5.00;3.00
14880;PMS7003;7533;51.278;12.588;2022-07-26T11:56:13;4.25;4.25;3.00
14880;PMS7003;7533;51.278;12.588;2022-07-26T12:01:18;4.00;4.00;3.00
14880;PMS7003;7533;51.278;12.588;2022-07-26T12:06:25;4.00;4.00;3.00
14880;PMS7003;7533;51.278;12.588;2022-07-26T12:11:35;4.50;3.75;2.75
14880;PMS7003;7533;51.278;12.588;2022-07-26T12:16:42;4.00;4.00;2.50
14880;PMS7003;7533;51.278;12.588;2022-07-26T12:21:49;4.00;4.00;2.75
14880;PMS7003;7533;51.278;12.588;2022-07-26T12:27:02;4.00;4.00;3.00
14880;PMS7003;7533;51.278;12.588;2022-07-26T12:32:07;4.00;4.00;3.00
14880;PMS7003;7533;51.278;12.588;2022-07-26T12:37:15;5.00;5.00;3.00
14880;PMS7003;7533;51.278;12.588;2022-07-26T12:42:19;4.25;3.50;3.00
14880;PMS7003;7533;51.278;12.588;2022-07-26T12:47:23;4.00;4.00;2.50
14880;PMS7003;7533;51.278;12.588;2022-07-26T12:52:27;3.50;3.50;2.25
14880;PMS7003;7533;51.278;12.588;2022-07-26T12:57:30;4.00;4.00;2.00
14880;PMS7003;7533;51.278;12.588;2022-07-26T13:02:37;5.25;5.25;3.00
14880;PMS7003;7533;51.278;12.588;2022-07-26T13:07:42;4.00;4.00;3.00
14880;PMS7003;7533;51.278;12.588;2022-07-26T13:12:45;5.00;5.00;3.00
14880;PMS7003;7533;51.278;12.588;2022-07-26T13:17:47;6.75;6.50;4.25
14880;PMS7003;7533;51.278;12.588;2022-07-26T13:22:53;7.50;5.75;3.50
14880;PMS7003;7533;51.278;12.588;2022-07-26T13:27:56;5.00;5.00;3.25
14880;PMS7003;7533;51.278;12.588;2022-07-26T13:32:58;5.50;5.50;3.50
14880;PMS7003;7533;51.278;12.588;2022-07-26T13:38:02;6.00;6.00;3.00
14880;PMS7003;7533;51.278;12.588;2022-07-26T13:43:05;4.75;4.75;2.00
14880;PMS7003;7533;51.278;12.588;2022-07-26T13:48:08;6.50;5.75;4.00
14880;PMS7003;7533;51.278;12.588;2022-07-26T13:53:12;6.25;6.25;4.00
14880;PMS7003;7533;51.278;12.588;2022-07-26T13:58:15;9.00;8.00;5.50
14880;PMS7003;7533;51.278;12.588;2022-07-26T14:03:21;9.50;9.00;6.00
14880;PMS7003;7533;51.278;12.588;2022-07-26T14:08:25;8.25;8.25;6.00
14880;PMS7003;7533;51.278;12.588;2022-07-26T14:13:28;9.00;7.50;6.00
14880;PMS7003;7533;51.278;12.588;2022-07-26T14:18:31;8.75;8.75;5.00
14880;PMS7003;7533;51.278;12.588;2022-07-26T14:23:35;8.25;7.00;4.75
14880;PMS7003;7533;51.278;12.588;2022-07-26T14:28:38;7.50;6.75;5.00
14880;PMS7003;7533;51.278;12.588;2022-07-26T14:33:41;8.00;7.00;5.00
14880;PMS7003;7533;51.278;12.588;2022-07-26T14:38:46;11.00;9.75;6.00
14880;PMS7003;7533;51.278;12.588;2022-07-26T14:43:50;9.25;7.00;4.50
14880;PMS7003;7533;51.278;12.588;2022-07-26T14:48:56;7.50;5.75;4.25
14880;PMS7003;7533;51.278;12.588;2022-07-26T14:54:00;10.25;8.00;5.00
14880;PMS7003;7533;51.278;12.588;2022-07-26T14:59:03;5.00;5.00;3.50
14880;PMS7003;7533;51.278;12.588;2022-07-26T15:04:06;7.25;6.75;4.25
14880;PMS7003;7533;51.278;12.588;2022-07-26T15:09:10;7.00;6.00;4.00
14880;PMS7003;7533;51.278;12.588;2022-07-26T15:14:13;5.25;5.25;3.75
14880;PMS7003;7533;51.278;12.588;2022-07-26T15:19:16;5.50;5.50;3.75
14880;PMS7003;7533;51.278;12.588;2022-07-26T15:24:27;6.25;6.00;5.00
14880;PMS7003;7533;51.278;12.588;2022-07-26T15:29:30;5.50;5.00;3.25
14880;PMS7003;7533;51.278;12.588;2022-07-26T15:34:33;8.75;6.00;3.75
14880;PMS7003;7533;51.278;12.588;2022-07-26T15:39:37;5.75;4.50;3.75
14880;PMS7003;7533;51.278;12.588;2022-07-26T15:44:40;4.25;4.25;3.75
14880;PMS7003;7533;51.278;12.588;2022-07-26T15:49:44;5.00;5.00;4.00
14880;PMS7003;7533;51.278;12.588;2022-07-26T15:54:48;8.50;7.50;4.50
14880;PMS7003;7533;51.278;12.588;2022-07-26T15:59:52;7.50;7.00;5.00
14880;PMS7003;7533;51.278;12.588;2022-07-26T16:04:55;4.50;4.50;3.75
14880;PMS7003;7533;51.278;12.588;2022-07-26T16:09:59;5.00;5.00;3.50
14880;PMS7003;7533;51.278;12.588;2022-07-26T16:15:02;5.00;4.50;3.00
14880;PMS7003;7533;51.278;12.588;2022-07-26T16:20:06;4.00;4.00;3.00
14880;PMS7003;7533;51.278;12.588;2022-07-26T16:25:11;6.50;5.75;4.00
14880;PMS7003;7533;51.278;12.588;2022-07-26T16:30:14;5.75;4.75;2.75
14880;PMS7003;7533;51.278;12.588;2022-07-26T16:35:17;4.50;4.50;3.00
14880;PMS7003;7533;51.278;12.588;2022-07-26T16:40:22;5.75;5.50;4.00
14880;PMS7003;7533;51.278;12.588;2022-07-26T16:45:25;4.75;4.75;3.75
14880;PMS7003;7533;51.278;12.588;2022-07-26T16:50:27;7.00;7.00;5.00
14880;PMS7003;7533;51.278;12.588;2022-07-26T16:55:32;6.00;5.00;3.75
14880;PMS7003;7533;51.278;12.588;2022-07-26T17:00:34;3.75;3.50;3.00
14880;PMS7003;7533;51.278;12.588;2022-07-26T17:05:37;5.25;5.25;3.00
14880;PMS7003;7533;51.278;12.588;2022-07-26T17:10:41;5.50;5.50;3.50
14880;PMS7003;7533;51.278;12.588;2022-07-26T17:15:45;5.50;5.50;3.50
14880;PMS7003;7533;51.278;12.588;2022-07-26T17:20:48;7.25;6.50;4.25
14880;PMS7003;7533;51.278;12.588;2022-07-26T17:25:52;6.75;6.75;3.00
14880;PMS7003;7533;51.278;12.588;2022-07-26T17:30:55;5.25;5.25;3.00
14880;PMS7003;7533;51.278;12.588;2022-07-26T17:35:57;5.25;5.00;3.25
14880;PMS7003;7533;51.278;12.588;2022-07-26T17:41:06;6.00;5.75;3.50
14880;PMS7003;7533;51.278;12.588;2022-07-26T17:46:09;5.75;5.00;3.00
14880;PMS7003;7533;51.278;12.588;2022-07-26T17:51:11;5.00;5.00;3.00
14880;PMS7003;7533;51.278;12.588;2022-07-26T17:56:16;4.25;4.25;3.00
14880;PMS7003;7533;51.278;12.588;2022-07-26T18:01:20;4.75;4.75;3.25
14880;PMS7003;7533;51.278;12.588;2022-07-26T18:06:23;3.00;3.00;2.25
14880;PMS7003;7533;51.278;12.588;2022-07-26T18:11:28;3.50;3.50;3.00
14880;PMS7003;7533;51.278;12.588;2022-07-26T18:16:34;3.00;3.00;1.75
14880;PMS7003;7533;51.278;12.588;2022-07-26T18:21:37;4.50;3.75;2.00
14880;PMS7003;7533;51.278;12.588;2022-07-26T18:26:41;3.75;3.75;2.50
14880;PMS7003;7533;51.278;12.588;2022-07-26T18:31:45;4.00;4.00;2.00
14880;PMS7003;7533;51.278;12.588;2022-07-26T18:36:48;3.50;3.50;2.50
14880;PMS7003;7533;51.278;12.588;2022-07-26T18:41:52;4.50;2.75;2.00
14880;PMS7003;7533;51.278;12.588;2022-07-26T18:46:55;5.50;5.50;3.50
14880;PMS7003;7533;51.278;12.588;2022-07-26T18:51:58;4.00;4.00;3.00
14880;PMS7003;7533;51.278;12.588;2022-07-26T18:57:10;3.00;3.00;1.75
14880;PMS7003;7533;51.278;12.588;2022-07-26T19:02:13;2.75;2.75;1.00
14880;PMS7003;7533;51.278;12.588;2022-07-26T19:07:15;2.75;2.75;2.25
14880;PMS7003;7533;51.278;12.588;2022-07-26T19:12:20;2.00;2.00;1.00
14880;PMS7003;7533;51.278;12.588;2022-07-26T19:17:22;2.50;2.00;1.25
14880;PMS7003;7533;51.278;12.588;2022-07-26T19:22:25;2.25;2.25;1.50
14880;PMS7003;7533;51.278;12.588;2022-07-26T19:27:30;2.00;2.00;1.00
14880;PMS7003;7533;51.278;12.588;2022-07-26T19:32:33;2.00;1.00;0.75
14880;PMS7003;7533;51.278;12.588;2022-07-26T19:37:36;3.00;2.00;1.00
14880;PMS7003;7533;51.278;12.588;2022-07-26T19:42:40;2.00;2.00;1.25
14880;PMS7003;7533;51.278;12.588;2022-07-26T19:47:43;2.50;1.75;1.00
14880;PMS7003;7533;51.278;12.588;2022-07-26T19:52:46;2.00;2.00;1.00
14880;PMS7003;7533;51.278;12.588;2022-07-26T19:57:50;2.25;2.25;1.00
14880;PMS7003;7533;51.278;12.588;2022-07-26T20:02:53;3.25;3.25;1.25
14880;PMS7003;7533;51.278;12.588;2022-07-26T20:07:56;3.25;2.00;0.75
14880;PMS7003;7533;51.278;12.588;2022-07-26T20:13:00;2.00;2.00;0.50
14880;PMS7003;7533;51.278;12.588;2022-07-26T20:18:03;2.00;2.00;1.25
14880;PMS7003;7533;51.278;12.588;2022-07-26T20:23:06;3.25;2.25;0.50
14880;PMS7003;7533;51.278;12.588;2022-07-26T20:28:12;1.00;1.00;0.25
14880;PMS7003;7533;51.278;12.588;2022-07-26T20:33:15;2.00;2.00;0.50
14880;PMS7003;7533;51.278;12.588;2022-07-26T20:38:17;2.00;2.00;1.00
14880;PMS7003;7533;51.278;12.588;2022-07-26T20:43:22;1.00;1.00;0.00
14880;PMS7003;7533;51.278;12.588;2022-07-26T20:48:27;1.00;1.00;1.00
14880;PMS7003;7533;51.278;12.588;2022-07-26T20:53:29;1.75;1.75;0.75
14880;PMS7003;7533;51.278;12.588;2022-07-26T20:58:33;1.00;1.00;0.00
14880;PMS7003;7533;51.278;12.588;2022-07-26T21:03:36;0.25;0.25;0.00
14880;PMS7003;7533;51.278;12.588;2022-07-26T21:08:39;1.00;1.00;0.00
14880;PMS7003;7533;51.278;12.588;2022-07-26T21:13:43;1.00;1.00;0.00
14880;PMS7003;7533;51.278;12.588;2022-07-26T21:18:48;2.00;1.00;1.00
14880;PMS7003;7533;51.278;12.588;2022-07-26T21:23:53;1.00;1.00;0.50
14880;PMS7003;7533;51.278;12.588;2022-07-26T21:28:57;2.00;1.00;0.00
14880;PMS7003;7533;51.278;12.588;2022-07-26T21:34:00;3.00;2.00;1.00
14880;PMS7003;7533;51.278;12.588;2022-07-26T21:39:03;1.50;1.50;1.00
14880;PMS7003;7533;51.278;12.588;2022-07-26T21:44:08;1.00;1.00;1.00
14880;PMS7003;7533;51.278;12.588;2022-07-26T21:49:10;1.25;1.00;1.00
14880;PMS7003;7533;51.278;12.588;2022-07-26T21:54:14;1.50;1.50;1.00
14880;PMS7003;7533;51.278;12.588;2022-07-26T21:59:22;1.50;1.00;0.25
14880;PMS7003;7533;51.278;12.588;2022-07-26T22:04:24;2.25;1.75;0.50
14880;PMS7003;7533;51.278;12.588;2022-07-26T22:09:27;2.25;2.25;1.00
14880;PMS7003;7533;51.278;12.588;2022-07-26T22:14:31;2.00;2.00;1.00
14880;PMS7003;7533;51.278;12.588;2022-07-26T22:19:34;3.00;1.75;0.75
14880;PMS7003;7533;51.278;12.588;2022-07-26T22:24:36;1.00;1.00;0.25
14880;PMS7003;7533;51.278;12.588;2022-07-26T22:29:40;1.50;1.50;0.00
14880;PMS7003;7533;51.278;12.588;2022-07-26T22:34:43;2.00;2.00;0.75
14880;PMS7003;7533;51.278;12.588;2022-07-26T22:39:46;1.50;1.50;0.00
14880;PMS7003;7533;51.278;12.588;2022-07-26T22:44:50;2.00;2.00;0.00
14880;PMS7003;7533;51.278;12.588;2022-07-26T22:49:53;2.00;2.00;0.00
14880;PMS7003;7533;51.278;12.588;2022-07-26T22:54:55;1.25;1.25;0.25
14880;PMS7003;7533;51.278;12.588;2022-07-26T23:00:00;0.75;0.75;0.25
14880;PMS7003;7533;51.278;12.588;2022-07-26T23:05:03;1.00;1.00;0.00
14880;PMS7003;7533;51.278;12.588;2022-07-26T23:10:07;1.50;1.50;0.25
14880;PMS7003;7533;51.278;12.588;2022-07-26T23:15:13;1.00;1.00;0.00
14880;PMS7003;7533;51.278;12.588;2022-07-26T23:20:15;1.00;1.00;1.00
14880;PMS7003;7533;51.278;12.588;2022-07-26T23:25:18;2.50;2.25;1.00
14880;PMS7003;7533;51.278;12.588;2022-07-26T23:30:23;2.00;2.00;1.00
14880;PMS7003;7533;51.278;12.588;2022-07-26T23:35:26;1.50;1.50;0.00
14880;PMS7003;7533;51.278;12.588;2022-07-26T23:40:29;1.00;1.00;0.00
14880;PMS7003;7533;51.278;12.588;2022-07-26T23:45:33;1.00;1.00;0.50
14880;PMS7003;7533;51.278;12.588;2022-07-26T23:50:36;0.00;0.00;0.00
14880;PMS7003;7533;51.278;12.588;2022-07-26T23:55:39;1.25;1.25;0.00
